KLAX Airport Information

Runway Information
Runway 06L Length 8925 ft width 150 ft
Elevation 112 ft Threshold 0 ft Heading 83
Runway 24R Length 8925 ft Width 150 ft
Elevation 117 ft Threshold 0 ft Heading 263
Runway 06R Length 10285 ft width 150 ft
Elevation 108 ft Threshold 331 ft Heading 83
Runway 24L Length 10285 ft Width 150 ft
Elevation 111 ft Threshold 0 ft Heading 263
Runway 07L Length 12091 ft width 150 ft
Elevation 119 ft Threshold 0 ft Heading 83
Runway 25R Length 12091 ft Width 150 ft
Elevation 94 ft Threshold 957 ft Heading 263
Runway 07R Length 11096 ft width 200 ft
Elevation 118 ft Threshold 0 ft Heading 83
Runway 25L Length 11096 ft Width 200 ft
Elevation 95 ft Threshold 0 ft Heading 263
Airport Frequencies
Type APP Name SOCAL APP Frequency 36.07 MHZ
Type APP Name SOCAL APP Frequency 124.3 MHZ
Type ATIS Name ATIS Frequency 133.8 MHZ
Type CLD Name CLNC DEL Frequency 121.4 MHZ
Type DEP Name SOCAL DEP Frequency 124.3 MHZ
Type GND Name GND Frequency 121.65 MHZ
Type MISC Name CG Frequency 34.5 MHZ
Type MISC Name CG Frequency 898.4 MHZ
Type OPS Name AF Frequency 37.22 MHZ
Type TWR Name TWR Frequency 119.8 MHZ
Type UNIC Name UNICOM Frequency 122.95 MHZ
Airport Navaids
Type VORTAC Name Los Angeles Frequency 113600 KHZ
Type NDB Name Romen Frequency 278 KHZ
Airport Weather Information & NOTAM
ADDS - METARS form results

(1449 UTC 20 April 2018)
Data provider http://aviationweather.gov/adds/metars/
 
METAR text: KLAX 201353Z 08007KT 8SM SCT011 BKN015 12/08 A3012 RMK AO2 SLP199 BKN V SCT T01170083
Conditions at: KLAX (LOS ANGELES , CA, US) observed 1353 UTC 20 April 2018
Temperature: 11.7°C (53°F)
Dewpoint: 8.3°C (47°F) [RH = 80%]
Pressure (altimeter): 30.12 inches Hg (1020.1 mb)
[Sea-level pressure: 1019.9 mb]
Winds: from the E (80 degrees) at 8 MPH (7 knots; 3.6 m/s)
Visibility: 8 miles (13 km)
Ceiling: 1500 feet AGL
Clouds: scattered clouds at 1100 feet AGL
broken clouds at 1500 feet AGL
Weather: no significant weather observed at this time

Forecast for: KLAX (LOS ANGELES , CA, US)
Text: KLAX 201445Z 2015/2118 08007KT P6SM BKN016
Forecast period: 1500 to 1630 UTC 20 April 2018
Forecast type: FROM: standard forecast or significant change
Winds: from the E (80 degrees) at 8 MPH (7 knots; 3.6 m/s)
Visibility: 6 or more miles (10+ km)
Ceiling: 1600 feet AGL
Clouds: broken clouds at 1600 feet AGL
Weather: no significant weather forecast for this period
Forecast for: KLAX (LOS ANGELES , CA, US)
Text: KLAX 201445Z 2015/2118 08007KT P6SM BKN016
Forecast period: 1500 to 1630 UTC 20 April 2018
Forecast type: FROM: standard forecast or significant change
Winds: from the E (80 degrees) at 8 MPH (7 knots; 3.6 m/s)
Visibility: 6 or more miles (10+ km)
Ceiling: 1600 feet AGL
Clouds: broken clouds at 1600 feet AGL
Weather: no significant weather forecast for this period
Forecast for: KLAX (LOS ANGELES , CA, US)
Text: KLAX 201445Z 2015/2118 08007KT P6SM BKN016
Forecast period: 1630 to 1900 UTC 20 April 2018
Forecast type: FROM: standard forecast or significant change
Winds: variable direction winds at 3 MPH (3 knots; 1.6 m/s)
Visibility: 6 or more miles (10+ km)
Clouds: few clouds at 2000 feet AGL
Weather: no significant weather forecast for this period
Forecast for: KLAX (LOS ANGELES , CA, US)
Text: KLAX 201445Z 2015/2118 08007KT P6SM BKN016
Forecast period: 1630 to 1900 UTC 20 April 2018
Forecast type: FROM: standard forecast or significant change
Winds: variable direction winds at 3 MPH (3 knots; 1.6 m/s)
Visibility: 6 or more miles (10+ km)
Clouds: few clouds at 2000 feet AGL
Weather: no significant weather forecast for this period
Forecast for: KLAX (LOS ANGELES , CA, US)
Text: KLAX 201445Z 2015/2118 08007KT P6SM BKN016
Forecast period: 1900 to 2100 UTC 20 April 2018
Forecast type: FROM: standard forecast or significant change
Winds: from the W (260 degrees) at 9 MPH (8 knots; 4.2 m/s)
Visibility: 6 or more miles (10+ km)
Clouds: clear skies
Weather: no significant weather forecast for this period
Forecast for: KLAX (LOS ANGELES , CA, US)
Text: KLAX 201445Z 2015/2118 08007KT P6SM BKN016
Forecast period: 1900 to 2100 UTC 20 April 2018
Forecast type: FROM: standard forecast or significant change
Winds: from the W (260 degrees) at 9 MPH (8 knots; 4.2 m/s)
Visibility: 6 or more miles (10+ km)
Clouds: clear skies
Weather: no significant weather forecast for this period
Forecast for: KLAX (LOS ANGELES , CA, US)
Text: KLAX 201445Z 2015/2118 08007KT P6SM BKN016
Forecast period: 2100 UTC 20 April 2018 to 0400 UTC 21 April 2018
Forecast type: FROM: standard forecast or significant change
Winds: from the W (260 degrees) at 16 MPH (14 knots; 7.3 m/s)
Visibility: 6 or more miles (10+ km)
Clouds: clear skies
Weather: no significant weather forecast for this period
Forecast for: KLAX (LOS ANGELES , CA, US)
Text: KLAX 201445Z 2015/2118 08007KT P6SM BKN016
Forecast period: 2100 UTC 20 April 2018 to 0400 UTC 21 April 2018
Forecast type: FROM: standard forecast or significant change
Winds: from the W (260 degrees) at 16 MPH (14 knots; 7.3 m/s)
Visibility: 6 or more miles (10+ km)
Clouds: clear skies
Weather: no significant weather forecast for this period
Forecast for: KLAX (LOS ANGELES , CA, US)
Text: KLAX 201445Z 2015/2118 08007KT P6SM BKN016
Forecast period: 0400 to 0800 UTC 21 April 2018
Forecast type: FROM: standard forecast or significant change
Winds: variable direction winds at 3 MPH (3 knots; 1.6 m/s)
Visibility: 6 or more miles (10+ km)
Clouds: clear skies
Weather: no significant weather forecast for this period
Forecast for: KLAX (LOS ANGELES , CA, US)
Text: KLAX 201445Z 2015/2118 08007KT P6SM BKN016
Forecast period: 0400 to 0800 UTC 21 April 2018
Forecast type: FROM: standard forecast or significant change
Winds: variable direction winds at 3 MPH (3 knots; 1.6 m/s)
Visibility: 6 or more miles (10+ km)
Clouds: clear skies
Weather: no significant weather forecast for this period
Forecast for: KLAX (LOS ANGELES , CA, US)
Text: KLAX 201445Z 2015/2118 08007KT P6SM BKN016
Forecast period: 0800 to 1700 UTC 21 April 2018
Forecast type: FROM: standard forecast or significant change
Winds: variable direction winds at 3 MPH (3 knots; 1.6 m/s)
Visibility: 6 miles (10 km)
Ceiling: 1000 feet AGL
Clouds: broken clouds at 1000 feet AGL
Weather: BR  (mist)
Forecast for: KLAX (LOS ANGELES , CA, US)
Text: KLAX 201445Z 2015/2118 08007KT P6SM BKN016
Forecast period: 0800 to 1700 UTC 21 April 2018
Forecast type: FROM: standard forecast or significant change
Winds: variable direction winds at 3 MPH (3 knots; 1.6 m/s)
Visibility: 6 miles (10 km)
Ceiling: 1000 feet AGL
Clouds: broken clouds at 1000 feet AGL
Weather: BR  (mist)
Forecast for: KLAX (LOS ANGELES , CA, US)
Text: KLAX 201445Z 2015/2118 08007KT P6SM BKN016
Forecast period: 1700 to 1800 UTC 21 April 2018
Forecast type: FROM: standard forecast or significant change
Winds: variable direction winds at 3 MPH (3 knots; 1.6 m/s)
Visibility: 6 or more miles (10+ km)
Clouds: scattered clouds at 1500 feet AGL
Weather: no significant weather forecast for this period
Forecast for: KLAX (LOS ANGELES , CA, US)
Text: KLAX 201445Z 2015/2118 08007KT P6SM BKN016
Forecast period: 1700 to 1800 UTC 21 April 2018
Forecast type: FROM: standard forecast or significant change
Winds: variable direction winds at 3 MPH (3 knots; 1.6 m/s)
Visibility: 6 or more miles (10+ km)
Clouds: scattered clouds at 1500 feet AGL
Weather: no significant weather forecast for this period